Time;durP1;ratioP1;P1;durP2;ratioP2;P2;SDS_P1;SDS_P2;PMS_P1;PMS_P2;Temp;Humidity;BMP_temperature;BMP_pressure;BME280_temperature;BME280_humidity;BME280_pressure;Samples;Min_cycle;Max_cycle;Signal;HPM_P1;HPM_P2
2023/10/02 00:01:57;;;;;;;7.80;1.50;;;;;;;15.00;75.70;101023.85;55065;1272;1015759;-59
2023/10/02 00:04:34;;;;;;;12.30;3.70;;;;;;;15.02;75.83;101023.92;55065;1272;1016322;-59
2023/10/02 00:07:08;;;;;;;11.90;2.20;;;;;;;15.03;75.54;101021.78;55051;1267;1015906;-59
2023/10/02 00:09:41;;;;;;;11.00;1.90;;;;;;;15.03;75.65;101016.88;55062;1272;1015972;-59
2023/10/02 00:12:12;;;;;;;10.60;1.90;;;;;;;15.03;75.49;101008.66;55107;1271;1016002;-59
2023/10/02 00:14:44;;;;;;;9.30;2.00;;;;;;;15.04;75.55;101009.32;55048;1272;1016265;-59
2023/10/02 00:17:18;;;;;;;14.00;2.20;;;;;;;15.04;75.75;101012.75;55048;1272;1015647;-59
2023/10/02 00:19:57;;;;;;;11.00;1.80;;;;;;;15.05;75.78;101016.40;55064;1271;1014866;-59
2023/10/02 00:22:38;;;;;;;13.00;2.30;;;;;;;15.04;75.95;101006.97;55077;1271;1015320;-59
2023/10/02 00:25:16;;;;;;;12.00;2.50;;;;;;;15.06;76.05;101004.85;55068;1272;1015508;-59
2023/10/02 00:27:50;;;;;;;10.70;2.10;;;;;;;15.07;76.43;101004.31;55097;1272;1015619;-59
2023/10/02 00:30:22;;;;;;;9.80;2.00;;;;;;;15.09;76.56;101005.00;55060;1269;1015694;-59
2023/10/02 00:32:53;;;;;;;14.80;2.40;;;;;;;15.09;76.49;101007.03;55097;1271;1015528;-59
2023/10/02 00:35:24;;;;;;;10.70;2.20;;;;;;;15.10;76.40;101004.34;55101;1272;1015263;-58
2023/10/02 00:37:57;;;;;;;12.50;2.20;;;;;;;15.10;76.59;101002.41;55083;1272;1015327;-61
2023/10/02 00:40:30;;;;;;;11.60;2.00;;;;;;;15.10;76.86;101002.56;55088;1272;1015778;-60
2023/10/02 00:43:33;;;;;;;13.20;1.90;;;;;;;15.10;76.71;101001.69;55119;1271;1015852;-62
2023/10/02 00:45:58;;;;;;;10.50;2.10;;;;;;;15.10;76.89;101000.00;55099;1272;1015360;-62
2023/10/02 00:48:30;;;;;;;12.50;2.10;;;;;;;15.10;76.41;101004.66;55079;1272;1015336;-61
2023/10/02 00:51:09;;;;;;;11.00;2.10;;;;;;;15.11;76.39;100999.35;55089;1271;1015532;-62
2023/10/02 00:53:48;;;;;;;13.30;2.10;;;;;;;15.13;76.62;101005.41;55117;1272;1015425;-61
2023/10/02 00:56:23;;;;;;;8.70;2.10;;;;;;;15.12;76.47;101009.66;55069;1269;1015778;-62
2023/10/02 00:58:58;;;;;;;14.80;2.70;;;;;;;15.14;76.44;101011.97;55089;1271;1016051;-62
2023/10/02 01:01:31;;;;;;;11.70;2.30;;;;;;;15.16;76.47;101008.41;55112;1270;1015731;-62
2023/10/02 01:04:10;;;;;;;11.00;2.20;;;;;;;15.16;76.40;101008.06;55062;1272;1015590;-62
2023/10/02 01:07:04;;;;;;;12.30;2.70;;;;;;;15.18;76.64;101005.47;55063;1272;1015670;-62
2023/10/02 01:09:35;;;;;;;7.90;1.70;;;;;;;15.18;76.66;101015.56;55100;1271;1015511;-62
2023/10/02 01:12:10;;;;;;;9.80;2.00;;;;;;;15.19;76.90;101018.58;55030;1270;1015936;-61
2023/10/02 01:14:50;;;;;;;12.50;2.30;;;;;;;15.20;76.79;101015.06;55148;1272;1015947;-61
2023/10/02 01:17:22;;;;;;;10.70;1.80;;;;;;;15.21;77.04;101014.00;55069;1272;1015928;-61
2023/10/02 01:19:54;;;;;;;9.00;2.00;;;;;;;15.21;77.20;101013.75;55032;1272;1015392;-60
2023/10/02 01:22:27;;;;;;;9.80;2.00;;;;;;;15.23;77.33;101012.20;55034;1270;1015315;-61
2023/10/02 01:25:12;;;;;;;13.20;2.10;;;;;;;15.24;77.53;101015.98;55127;1271;1015360;-62
2023/10/02 01:27:47;;;;;;;9.40;2.10;;;;;;;15.24;77.71;101011.73;55081;1263;1015442;-61
2023/10/02 01:30:20;;;;;;;7.90;1.50;;;;;;;15.25;77.78;101007.97;55115;1271;1014706;-61
2023/10/02 01:33:17;;;;;;;10.20;1.90;;;;;;;15.27;77.51;101014.53;55039;1272;1015649;-61
2023/10/02 01:35:50;;;;;;;8.60;2.00;;;;;;;15.30;77.73;101016.45;55084;1273;1016002;-61
2023/10/02 01:38:26;;;;;;;11.90;2.00;;;;;;;15.29;77.76;101012.98;55056;1269;1015902;-61
2023/10/02 01:41:04;;;;;;;11.60;2.20;;;;;;;15.29;78.12;101015.53;55068;1272;1014458;-63
2023/10/02 01:43:42;;;;;;;9.70;2.40;;;;;;;15.30;77.93;101017.17;55049;1272;1015382;-62
2023/10/02 01:46:17;;;;;;;9.00;1.60;;;;;;;15.30;78.06;101021.34;55082;1272;1015254;-62
2023/10/02 01:48:50;;;;;;;9.50;2.00;;;;;;;15.30;78.10;101019.48;55085;1272;1016013;-61
2023/10/02 01:51:26;;;;;;;12.70;2.30;;;;;;;15.31;78.32;101021.44;55077;1271;1016285;-61
2023/10/02 01:53:59;;;;;;;12.80;2.10;;;;;;;15.32;78.49;101023.96;55106;1272;1015397;-61
2023/10/02 01:56:32;;;;;;;11.20;2.30;;;;;;;15.32;78.61;101029.65;55067;1272;1015174;-61
2023/10/02 01:59:09;;;;;;;9.20;2.00;;;;;;;15.32;78.70;101021.86;55094;1271;1015739;-60
2023/10/02 02:01:51;;;;;;;14.10;2.40;;;;;;;15.33;78.84;101020.70;55079;1272;1015554;-59
2023/10/02 02:04:24;;;;;;;11.00;2.10;;;;;;;15.34;78.87;101019.67;55060;1272;1015698;-63
2023/10/02 02:06:57;;;;;;;11.30;2.20;;;;;;;15.34;78.74;101021.42;55112;1269;1015439;-63
2023/10/02 02:09:30;;;;;;;14.50;2.90;;;;;;;15.34;78.90;101024.49;55043;1272;1015825;-63
2023/10/02 02:12:10;;;;;;;14.00;2.70;;;;;;;15.35;79.04;101023.69;55059;1272;1015940;-59
2023/10/02 02:14:49;;;;;;;14.10;3.20;;;;;;;15.36;79.05;101021.45;55069;1272;1015333;-60
2023/10/02 02:17:22;;;;;;;11.90;2.60;;;;;;;15.36;78.96;101023.90;54948;1267;1016262;-63
2023/10/02 02:19:53;;;;;;;10.90;3.00;;;;;;;15.35;79.30;101022.10;55063;1270;1016240;-61
2023/10/02 02:22:26;;;;;;;15.90;3.10;;;;;;;15.34;79.36;101022.96;55135;1271;1015891;-62
2023/10/02 02:24:59;;;;;;;11.90;2.40;;;;;;;15.34;79.54;101021.59;55099;1264;1015280;-60
2023/10/02 02:27:31;;;;;;;10.60;2.40;;;;;;;15.35;79.51;101023.17;55093;1272;1015462;-61
2023/10/02 02:30:10;;;;;;;10.90;2.00;;;;;;;15.37;79.73;101016.23;55044;1272;1015842;-61
2023/10/02 02:32:52;;;;;;;11.20;2.20;;;;;;;15.38;79.65;101013.61;55101;1267;1015399;-62
2023/10/02 02:35:23;;;;;;;11.10;2.50;;;;;;;15.38;79.77;101012.41;55084;1272;1015985;-59
2023/10/02 02:37:54;;;;;;;12.30;2.30;;;;;;;15.38;79.62;101009.54;55067;1272;1016113;-59
2023/10/02 02:40:26;;;;;;;11.40;2.10;;;;;;;15.38;79.68;101009.66;55059;1272;1014869;-59
2023/10/02 02:43:12;;;;;;;13.50;2.50;;;;;;;15.39;79.75;101011.36;55057;1272;1015309;-58
2023/10/02 02:45:45;;;;;;;12.20;2.10;;;;;;;15.40;79.52;101008.82;55076;1264;1015697;-61
2023/10/02 02:48:16;;;;;;;12.90;3.00;;;;;;;15.40;79.68;101010.80;55054;1272;1015918;-59
2023/10/02 02:50:47;;;;;;;11.10;2.70;;;;;;;15.40;79.93;101007.63;55056;1271;1016231;-59
2023/10/02 02:53:21;;;;;;;11.70;2.80;;;;;;;15.39;79.97;101003.88;55100;1272;1015764;-59
2023/10/02 02:56:14;;;;;;;11.40;2.20;;;;;;;15.40;80.06;101006.85;55052;1272;1015317;-59
2023/10/02 02:58:48;;;;;;;11.40;2.30;;;;;;;15.39;80.14;101008.54;55057;1272;1015915;-59
2023/10/02 03:01:22;;;;;;;13.30;2.20;;;;;;;15.37;80.14;101004.42;55070;1272;1015766;-59
2023/10/02 03:03:55;;;;;;;10.90;2.10;;;;;;;15.37;80.34;101004.27;55066;1272;1015383;-59
2023/10/02 03:06:27;;;;;;;18.80;3.50;;;;;;;15.38;80.21;101002.85;55050;1272;1015818;-59
2023/10/02 03:08:58;;;;;;;12.20;2.50;;;;;;;15.39;80.25;101007.20;55069;1272;1015432;-59
2023/10/02 03:11:29;;;;;;;11.40;2.20;;;;;;;15.40;80.28;101011.57;55152;1271;1015519;-59
2023/10/02 03:14:13;;;;;;;13.00;2.50;;;;;;;15.40;80.26;101013.05;55079;1268;1015641;-63
2023/10/02 03:16:45;;;;;;;10.70;2.80;;;;;;;15.40;80.44;101006.86;55075;1272;1016047;-61
2023/10/02 03:19:16;;;;;;;10.90;2.00;;;;;;;15.40;80.67;101003.75;55083;1266;1015740;-61
2023/10/02 03:21:47;;;;;;;12.70;2.70;;;;;;;15.42;80.54;101006.17;55133;1271;1015956;-62
2023/10/02 03:24:19;;;;;;;16.20;3.10;;;;;;;15.42;80.60;101009.95;55034;1264;1015762;-61
2023/10/02 03:26:52;;;;;;;15.00;2.90;;;;;;;15.42;80.55;101006.99;55057;1272;1015985;-61
2023/10/02 03:29:23;;;;;;;14.80;2.60;;;;;;;15.42;80.66;100998.92;55091;1272;1015950;-61
2023/10/02 03:31:54;;;;;;;13.50;2.50;;;;;;;15.40;80.69;100994.69;55038;1272;1015651;-61
2023/10/02 03:34:28;;;;;;;13.00;3.30;;;;;;;15.40;80.68;100997.19;55077;1267;1015843;-62
2023/10/02 03:37:13;;;;;;;13.70;2.70;;;;;;;15.40;80.81;101001.79;55057;1271;1015511;-62
2023/10/02 03:39:59;;;;;;;13.40;2.40;;;;;;;15.39;80.81;100997.18;55071;1272;1015677;-61
2023/10/02 03:42:32;;;;;;;13.30;2.90;;;;;;;15.38;80.99;100995.28;55092;1272;1016027;-60
2023/10/02 03:45:04;;;;;;;12.80;2.60;;;;;;;15.38;80.82;100992.97;55107;1271;1015521;-60
2023/10/02 03:47:35;;;;;;;12.90;2.70;;;;;;;15.38;80.78;100990.27;55085;1271;1016143;-58
2023/10/02 03:50:12;;;;;;;14.30;2.50;;;;;;;15.38;80.96;100990.78;55073;1272;1015748;-62
2023/10/02 03:52:45;;;;;;;14.80;2.60;;;;;;;15.38;80.90;100988.22;55094;1267;1016371;-61
2023/10/02 03:55:18;;;;;;;13.30;2.90;;;;;;;15.38;80.89;100992.31;55066;1270;1015377;-62
2023/10/02 03:57:50;;;;;;;13.70;3.10;;;;;;;15.38;81.10;100984.95;55134;1271;1015731;-61
2023/10/02 04:00:26;;;;;;;19.10;3.10;;;;;;;15.38;80.90;100992.16;55134;1271;1015882;-60
2023/10/02 04:02:59;;;;;;;14.60;3.00;;;;;;;15.39;80.86;100997.59;55040;1272;1015915;-61
2023/10/02 04:05:34;;;;;;;16.70;2.30;;;;;;;15.39;80.96;100996.00;55057;1269;1015414;-62
2023/10/02 04:11:02;;;;;;;13.60;2.50;;;;;;;15.40;80.91;101002.56;55092;1272;1015845;-61
2023/10/02 04:13:38;;;;;;;15.70;2.60;;;;;;;15.41;81.04;101012.49;55092;1266;1015395;-63
2023/10/02 04:19:02;;;;;;;15.50;2.60;;;;;;;15.42;80.93;100999.33;55127;1269;1015703;-65
2023/10/02 04:21:34;;;;;;;13.20;3.20;;;;;;;15.43;81.20;101002.73;55112;1271;1015353;-62
2023/10/02 04:24:09;;;;;;;13.10;4.40;;;;;;;15.45;81.04;100999.94;55111;1267;1016255;-62
2023/10/02 04:26:44;;;;;;;15.30;4.20;;;;;;;15.45;81.24;100999.44;55095;1264;1015809;-62
2023/10/02 04:29:26;;;;;;;16.10;4.00;;;;;;;15.45;81.11;100995.55;55110;1271;1016002;-62
2023/10/02 04:32:14;;;;;;;11.00;2.70;;;;;;;15.46;81.16;101000.21;55109;1272;1016096;-61
2023/10/02 04:34:50;;;;;;;14.10;3.20;;;;;;;15.47;81.10;100992.64;55077;1263;1015294;-62
2023/10/02 04:37:22;;;;;;;16.30;3.00;;;;;;;15.48;81.23;100994.96;55088;1271;1016081;-62
2023/10/02 04:40:13;;;;;;;12.20;2.80;;;;;;;15.50;81.17;100993.20;55125;1271;1016174;-62
2023/10/02 04:43:14;;;;;;;16.10;4.50;;;;;;;15.52;81.05;100997.92;55064;1272;1015552;-62
2023/10/02 04:45:46;;;;;;;14.50;3.50;;;;;;;15.51;81.04;100998.56;55102;1271;1015894;-61
2023/10/02 04:48:25;;;;;;;16.20;2.90;;;;;;;15.51;81.35;101002.20;55144;1267;1015847;-62
2023/10/02 04:50:56;;;;;;;15.90;3.20;;;;;;;15.51;81.55;101001.89;55158;1271;1015145;-62
2023/10/02 04:53:28;;;;;;;16.80;3.50;;;;;;;15.52;81.98;101002.59;55113;1271;1016265;-62
2023/10/02 04:56:19;;;;;;;16.70;3.80;;;;;;;15.50;82.11;101003.58;55084;1269;1016089;-62
2023/10/02 04:58:51;;;;;;;14.90;3.50;;;;;;;15.51;82.38;101003.41;55107;1271;1015452;-63
2023/10/02 05:01:34;;;;;;;27.20;5.00;;;;;;;15.50;82.37;101006.48;55081;1271;1016538;-62
2023/10/02 05:04:07;;;;;;;15.40;3.10;;;;;;;15.50;82.49;101006.35;55095;1271;1015744;-62
2023/10/02 05:06:44;;;;;;;18.30;3.70;;;;;;;15.51;82.53;101006.60;55095;1271;1016236;-62
2023/10/02 05:09:38;;;;;;;15.80;3.20;;;;;;;15.51;82.67;101009.16;55103;1269;1016084;-62
2023/10/02 05:12:22;;;;;;;14.20;3.10;;;;;;;15.52;82.50;101015.56;55100;1271;1015986;-62
2023/10/02 05:14:55;;;;;;;15.10;3.20;;;;;;;15.52;82.66;101012.96;55102;1270;1015298;-63
2023/10/02 05:17:46;;;;;;;20.40;3.50;;;;;;;15.53;82.60;101015.02;55123;1271;1015232;-62
2023/10/02 05:20:17;;;;;;;16.90;3.20;;;;;;;15.54;82.76;101011.81;55071;1271;1016211;-60
2023/10/02 05:22:58;;;;;;;16.90;3.10;;;;;;;15.55;82.69;101014.41;55072;1271;1016215;-63
2023/10/02 05:25:29;;;;;;;13.90;3.60;;;;;;;15.55;82.72;101017.60;55101;1271;1015384;-63
2023/10/02 05:28:01;;;;;;;14.30;3.40;;;;;;;15.56;82.71;101016.29;55110;1271;1015897;-61
2023/10/02 05:30:42;;;;;;;13.80;2.90;;;;;;;15.56;82.70;101014.30;55094;1271;1015919;-60
2023/10/02 05:33:16;;;;;;;12.60;2.90;;;;;;;15.57;82.80;101016.54;55079;1271;1016008;-61
2023/10/02 05:35:48;;;;;;;13.30;2.50;;;;;;;15.56;82.77;101012.40;55062;1271;1015357;-61
2023/10/02 05:41:46;;;;;;;14.80;3.00;;;;;;;15.59;83.00;101007.06;55040;1271;1015821;-61
2023/10/02 05:44:23;;;;;;;18.70;3.00;;;;;;;15.59;83.12;101011.81;55097;1272;1015193;-60
2023/10/02 05:46:56;;;;;;;18.90;3.30;;;;;;;15.61;83.06;101020.38;55108;1271;1015859;-61
2023/10/02 05:49:27;;;;;;;12.90;2.80;;;;;;;15.64;83.06;101023.27;55106;1271;1015905;-61
2023/10/02 05:52:00;;;;;;;15.10;2.30;;;;;;;15.65;83.29;101021.35;55124;1268;1015262;-60
2023/10/02 05:54:35;;;;;;;13.40;2.90;;;;;;;15.68;83.22;101025.83;55102;1264;1015783;-63
2023/10/02 05:57:12;;;;;;;13.50;3.00;;;;;;;15.69;83.39;101031.06;55099;1263;1016133;-62
2023/10/02 05:59:45;;;;;;;19.00;3.00;;;;;;;15.72;83.28;101025.84;55094;1264;1015927;-62
2023/10/02 06:02:19;;;;;;;15.80;3.20;;;;;;;15.74;83.24;101028.41;55096;1271;1015817;-62
2023/10/02 06:04:52;;;;;;;16.70;2.60;;;;;;;15.77;83.42;101032.69;55102;1266;1016118;-62
2023/10/02 06:07:44;;;;;;;13.70;2.80;;;;;;;15.79;83.64;101034.08;53845;1269;1016457;-60
2023/10/02 06:10:26;;;;;;;15.60;3.00;;;;;;;15.80;83.61;101037.13;53012;1264;1016888;-60
2023/10/02 06:13:05;;;;;;;15.70;2.60;;;;;;;15.82;83.73;101041.53;53082;1271;1015505;-60
2023/10/02 06:15:47;;;;;;;15.20;2.80;;;;;;;15.84;83.74;101038.70;55122;1271;1015327;-60
2023/10/02 06:18:27;;;;;;;14.90;3.10;;;;;;;15.84;83.90;101040.94;55127;1264;1015631;-61
2023/10/02 06:21:00;;;;;;;12.10;2.40;;;;;;;15.84;83.92;101042.94;55101;1272;1015836;-61
2023/10/02 06:23:37;;;;;;;19.30;3.20;;;;;;;15.86;84.30;101049.26;55078;1271;1015276;-61
2023/10/02 06:26:09;;;;;;;14.00;3.00;;;;;;;15.88;84.14;101047.95;55094;1266;1015374;-61
2023/10/02 06:28:43;;;;;;;17.30;2.70;;;;;;;15.90;84.12;101047.55;55123;1271;1015675;-60
2023/10/02 06:31:30;;;;;;;15.10;3.20;;;;;;;15.93;84.37;101047.27;55115;1271;1015261;-61
2023/10/02 06:34:02;;;;;;;15.20;2.70;;;;;;;15.96;84.56;101047.83;55059;1271;1014663;-60
2023/10/02 06:36:38;;;;;;;10.90;2.20;;;;;;;15.99;84.51;101047.61;55090;1266;1015605;-61
2023/10/02 06:39:10;;;;;;;15.40;2.20;;;;;;;16.03;84.83;101041.09;55095;1266;1015776;-61
2023/10/02 06:41:41;;;;;;;14.20;2.40;;;;;;;16.07;84.88;101044.52;55122;1264;1015988;-60
2023/10/02 06:44:18;;;;;;;13.70;2.20;;;;;;;16.12;84.91;101044.29;55102;1264;1015551;-61
2023/10/02 06:46:55;;;;;;;13.70;2.50;;;;;;;16.17;85.16;101049.66;55068;1272;1015314;-62
2023/10/02 06:49:26;;;;;;;12.30;2.60;;;;;;;16.23;84.98;101040.40;55142;1271;1015941;-63
2023/10/02 06:52:11;;;;;;;12.90;2.50;;;;;;;16.30;85.07;101044.45;55106;1271;1015657;-62
2023/10/02 06:54:43;;;;;;;10.00;1.90;;;;;;;16.37;84.97;101049.33;55041;1264;1014817;-62
2023/10/02 06:57:16;;;;;;;13.30;2.40;;;;;;;16.42;85.29;101040.45;55114;1271;1015709;-64
2023/10/02 06:59:55;;;;;;;10.70;2.00;;;;;;;16.49;85.12;101045.59;55111;1263;1015418;-62
2023/10/02 07:02:27;;;;;;;12.70;1.90;;;;;;;16.55;85.27;101039.41;55103;1271;1015267;-62
2023/10/02 07:04:58;;;;;;;12.70;2.40;;;;;;;16.60;85.14;101043.04;55082;1271;1016120;-63
2023/10/02 07:07:32;;;;;;;11.70;2.70;;;;;;;16.65;85.05;101048.65;55104;1271;1015610;-61
2023/10/02 07:10:08;;;;;;;9.70;2.40;;;;;;;16.70;85.26;101049.67;55127;1266;1015543;-61
2023/10/02 07:12:40;;;;;;;12.70;2.30;;;;;;;16.74;85.15;101048.36;55092;1271;1015359;-61
2023/10/02 07:15:13;;;;;;;11.80;2.60;;;;;;;16.77;85.09;101048.06;55136;1271;1015941;-62
2023/10/02 07:17:48;;;;;;;12.20;2.50;;;;;;;16.83;85.14;101048.11;55112;1271;1015939;-63
2023/10/02 07:20:20;;;;;;;11.60;2.20;;;;;;;16.88;85.08;101045.88;55131;1271;1016379;-62
2023/10/02 07:22:51;;;;;;;11.40;2.20;;;;;;;16.95;85.10;101044.04;55105;1271;1015261;-63
2023/10/02 07:25:24;;;;;;;9.90;1.70;;;;;;;17.02;84.93;101043.91;55137;1271;1015244;-62
2023/10/02 07:27:57;;;;;;;8.90;1.60;;;;;;;17.10;85.04;101044.73;55133;1271;1016006;-63
2023/10/02 07:30:29;;;;;;;11.30;1.90;;;;;;;17.18;84.76;101039.02;55163;1271;1016333;-63
2023/10/02 07:33:03;;;;;;;10.40;1.80;;;;;;;17.27;84.83;101042.56;55091;1272;1015587;-63
2023/10/02 07:35:36;;;;;;;13.70;2.10;;;;;;;17.36;84.71;101034.19;55087;1271;1016027;-63
2023/10/02 07:38:09;;;;;;;11.60;2.30;;;;;;;17.45;84.53;101033.85;55086;1271;1015213;-63
2023/10/02 07:40:50;;;;;;;13.60;2.10;;;;;;;17.55;84.49;101030.08;55156;1271;1016152;-64
2023/10/02 07:43:23;;;;;;;9.60;2.10;;;;;;;17.66;84.23;101035.34;55137;1271;1016008;-63
2023/10/02 07:46:02;;;;;;;13.00;1.70;;;;;;;17.76;84.07;101032.90;55106;1263;1015996;-62
2023/10/02 07:48:35;;;;;;;12.10;2.20;;;;;;;17.85;83.52;101032.60;55098;1266;1015517;-63
2023/10/02 07:51:09;;;;;;;11.20;1.90;;;;;;;17.92;83.21;101038.48;55109;1272;1015745;-63
2023/10/02 07:53:40;;;;;;;10.90;1.80;;;;;;;17.98;83.02;101033.91;55145;1271;1015439;-63
2023/10/02 07:56:14;;;;;;;9.90;2.10;;;;;;;18.05;82.89;101034.13;55106;1271;1015941;-62
2023/10/02 07:58:54;;;;;;;14.80;2.00;;;;;;;18.12;82.37;101037.11;55111;1266;1014535;-62
2023/10/02 08:01:27;;;;;;;12.60;1.70;;;;;;;18.21;82.02;101038.35;55081;1271;1015456;-63
2023/10/02 08:03:58;;;;;;;12.10;2.30;;;;;;;18.27;81.53;101044.63;55128;1271;1015806;-63
2023/10/02 08:06:36;;;;;;;10.30;2.20;;;;;;;18.34;81.06;101037.95;55128;1269;1015742;-62
2023/10/02 08:11:57;;;;;;;15.70;1.80;;;;;;;18.50;80.57;101043.11;55127;1271;1015604;-63
2023/10/02 08:14:40;;;;;;;9.10;1.50;;;;;;;18.59;80.21;101045.10;55134;1271;1015715;-63
2023/10/02 08:17:21;;;;;;;10.00;1.50;;;;;;;18.70;80.24;101045.46;55082;1272;1015708;-62
2023/10/02 08:19:56;;;;;;;10.20;1.60;;;;;;;18.80;79.40;101045.91;55122;1271;1016053;-63
2023/10/02 08:22:35;;;;;;;10.90;1.70;;;;;;;18.89;78.36;101048.78;55126;1271;1015864;-62
2023/10/02 08:25:13;;;;;;;8.10;1.30;;;;;;;18.98;77.96;101041.95;55109;1272;1015324;-66
2023/10/02 08:27:45;;;;;;;14.70;1.70;;;;;;;19.06;77.92;101043.58;55112;1266;1015943;-63
2023/10/02 08:30:27;;;;;;;10.70;2.00;;;;;;;19.15;77.43;101046.45;55117;1271;1015205;-62
2023/10/02 08:33:05;;;;;;;12.20;2.00;;;;;;;19.24;76.50;101044.98;55112;1271;1015215;-63
2023/10/02 08:35:37;;;;;;;10.00;2.00;;;;;;;19.32;76.17;101038.93;55131;1272;1015983;-63
2023/10/02 08:38:19;;;;;;;9.80;1.60;;;;;;;19.41;75.82;101041.38;55118;1271;1016296;-63
2023/10/02 08:40:57;;;;;;;11.60;1.40;;;;;;;19.51;74.97;101044.59;55132;1271;1015393;-64
2023/10/02 08:43:29;;;;;;;9.30;1.70;;;;;;;19.57;73.88;101040.02;55119;1271;1016086;-62
2023/10/02 08:46:02;;;;;;;9.20;1.60;;;;;;;19.63;73.87;101038.19;55135;1271;1015336;-63
2023/10/02 08:48:35;;;;;;;8.90;1.60;;;;;;;19.69;73.03;101037.54;55115;1271;1015496;-63
2023/10/02 08:51:09;;;;;;;12.20;1.60;;;;;;;19.75;73.07;101037.80;55109;1271;1016498;-61
2023/10/02 08:53:43;;;;;;;11.40;1.90;;;;;;;19.83;72.41;101033.34;55078;1272;1015656;-63
2023/10/02 08:56:23;;;;;;;17.10;1.90;;;;;;;19.90;72.46;101030.98;55089;1271;1015258;-63
2023/10/02 09:01:40;;;;;;;10.20;1.60;;;;;;;20.09;71.92;101030.84;55087;1272;1015816;-62
2023/10/02 09:04:28;;;;;;;7.60;1.30;;;;;;;20.22;71.48;101038.34;55113;1272;1015624;-64
2023/10/02 09:06:59;;;;;;;11.30;1.80;;;;;;;20.32;70.82;101027.96;55097;1272;1015580;-63
2023/10/02 09:09:36;;;;;;;6.80;1.30;;;;;;;20.40;70.36;101024.84;55099;1272;1015897;-64
2023/10/02 09:12:17;;;;;;;9.40;1.60;;;;;;;20.49;69.61;101026.47;55098;1271;1015528;-63
2023/10/02 09:14:51;;;;;;;10.50;1.70;;;;;;;20.55;69.20;101023.27;55096;1271;1015852;-63
2023/10/02 09:17:23;;;;;;;10.30;1.40;;;;;;;20.61;68.88;101013.98;55126;1271;1015897;-64
2023/10/02 09:20:02;;;;;;;6.80;1.40;;;;;;;20.68;68.88;101013.45;55087;1272;1015903;-63
2023/10/02 09:22:37;;;;;;;10.00;1.40;;;;;;;20.77;68.60;101012.41;55073;1269;1016048;-63
2023/10/02 09:25:23;;;;;;;13.30;1.70;;;;;;;20.88;67.78;101011.44;55129;1272;1015297;-64
2023/10/02 09:27:59;;;;;;;10.90;1.80;;;;;;;20.96;67.58;101009.27;55093;1272;1015559;-63
2023/10/02 09:30:38;;;;;;;10.20;1.80;;;;;;;21.05;67.43;101006.05;55112;1271;1015308;-63
2023/10/02 09:33:14;;;;;;;9.50;1.60;;;;;;;21.15;66.82;101007.86;55097;1272;1016059;-64
2023/10/02 09:35:50;;;;;;;8.70;1.40;;;;;;;21.23;66.68;101003.46;55119;1272;1015957;-63
2023/10/02 09:38:24;;;;;;;10.20;1.70;;;;;;;21.32;66.56;101005.16;55124;1266;1015297;-63
2023/10/02 09:40:58;;;;;;;8.20;1.60;;;;;;;21.39;65.93;101000.23;55121;1272;1016180;-63
2023/10/02 09:43:31;;;;;;;13.40;1.60;;;;;;;21.48;65.35;100994.29;55106;1271;1015510;-63
2023/10/02 09:46:05;;;;;;;13.00;1.50;;;;;;;21.55;64.33;100991.92;55071;1270;1015963;-63
2023/10/02 09:48:57;;;;;;;9.30;1.50;;;;;;;21.59;64.38;100987.58;55098;1266;1015661;-63
2023/10/02 09:51:45;;;;;;;11.90;1.70;;;;;;;21.66;64.29;100988.21;55145;1271;1015736;-63
2023/10/02 09:54:32;;;;;;;10.90;1.30;;;;;;;21.69;63.63;100984.91;55095;1272;1015677;-64
2023/10/02 09:57:12;;;;;;;9.40;1.70;;;;;;;21.70;63.36;100988.77;55086;1272;1015304;-63
2023/10/02 09:59:46;;;;;;;10.10;1.40;;;;;;;21.73;63.53;100978.08;55098;1272;1015844;-64
2023/10/02 10:10:52;;;;;;;8.50;1.30;;;;;;;21.97;61.05;100974.29;54700;1281;1015303;-63
2023/10/02 10:13:36;;;;;;;5.30;1.30;;;;;;;22.01;61.13;100976.75;54678;1277;1015966;-62
2023/10/02 10:16:38;;;;;;;7.10;1.20;;;;;;;22.08;60.76;100970.60;54687;1275;1015431;-60
2023/10/02 10:19:30;;;;;;;5.90;1.00;;;;;;;22.15;60.48;100965.27;54656;1281;1015392;-61
2023/10/02 10:22:04;;;;;;;8.90;1.30;;;;;;;22.16;59.63;100964.48;54707;1281;1015043;-61
2023/10/02 10:24:51;;;;;;;7.80;1.40;;;;;;;22.19;59.45;100968.29;54678;1281;1015405;-61
2023/10/02 10:28:00;;;;;;;5.90;1.50;;;;;;;22.21;59.63;100968.23;54658;1281;1016176;-61
2023/10/02 10:30:47;;;;;;;6.10;1.50;;;;;;;22.25;59.19;100962.16;54700;1281;1015405;-61
2023/10/02 10:33:40;;;;;;;6.50;1.30;;;;;;;22.32;59.04;100960.04;54721;1281;1015907;-61
2023/10/02 10:36:41;;;;;;;5.20;1.10;;;;;;;22.36;58.33;100960.27;54678;1281;1015847;-61
2023/10/02 10:39:58;;;;;;;6.90;1.30;;;;;;;22.39;58.36;100958.21;54693;1281;1015980;-61
2023/10/02 10:42:42;;;;;;;8.00;1.20;;;;;;;22.47;58.29;100953.21;54388;1288;1015575;-61
2023/10/02 10:45:14;;;;;;;9.00;1.30;;;;;;;22.50;58.02;100946.15;54537;1281;1015967;-61
2023/10/02 10:47:46;;;;;;;7.30;1.20;;;;;;;22.52;58.02;100946.58;54679;1281;1016171;-61
2023/10/02 10:50:32;;;;;;;5.30;1.00;;;;;;;22.54;57.80;100935.14;54662;1275;1015474;-61
2023/10/02 10:55:54;;;;;;;5.40;1.00;;;;;;;22.61;57.52;100933.94;54692;1281;1015267;-61
2023/10/02 10:58:33;;;;;;;11.80;1.50;;;;;;;22.63;57.38;100932.80;54649;1281;1015821;-61
2023/10/02 11:01:07;;;;;;;8.30;1.30;;;;;;;22.72;57.46;100930.10;54672;1281;1015959;-61
2023/10/02 11:03:39;;;;;;;6.70;1.20;;;;;;;22.79;57.32;100930.36;54695;1281;1016167;-61
2023/10/02 11:06:11;;;;;;;6.40;1.00;;;;;;;22.86;57.09;100928.73;54663;1281;1015789;-61
2023/10/02 11:08:44;;;;;;;6.70;1.10;;;;;;;22.91;56.52;100923.17;54676;1275;1016033;-61
2023/10/02 11:11:22;;;;;;;6.40;0.90;;;;;;;22.94;56.39;100919.50;54680;1281;1015643;-61
2023/10/02 11:13:54;;;;;;;7.70;1.20;;;;;;;22.95;56.32;100914.44;54677;1275;1015492;-61
2023/10/02 11:16:36;;;;;;;10.60;1.30;;;;;;;23.01;56.26;100917.96;54681;1281;1015563;-61
2023/10/02 11:19:21;;;;;;;4.30;1.00;;;;;;;23.06;56.03;100913.09;54875;1272;1016206;-60
2023/10/02 11:22:14;;;;;;;6.40;1.00;;;;;;;23.12;55.93;100915.90;55109;1272;1015821;-59
2023/10/02 11:24:48;;;;;;;7.40;1.00;;;;;;;23.20;55.90;100913.35;55110;1272;1015572;-59
2023/10/02 11:27:20;;;;;;;8.00;1.00;;;;;;;23.26;55.48;100910.45;55089;1272;1016617;-61
2023/10/02 11:30:02;;;;;;;8.40;1.20;;;;;;;23.30;55.30;100908.88;55077;1266;1015919;-62
2023/10/02 11:32:54;;;;;;;6.10;1.10;;;;;;;23.29;54.43;100902.41;55143;1271;1016016;-61
2023/10/02 11:35:28;;;;;;;6.70;1.10;;;;;;;23.30;54.68;100903.17;55116;1266;1016398;-62
2023/10/02 11:38:01;;;;;;;5.50;1.10;;;;;;;23.40;54.60;100899.55;55077;1269;1016624;-62
2023/10/02 11:40:32;;;;;;;8.00;1.10;;;;;;;23.49;54.60;100895.89;55080;1272;1016160;-61
2023/10/02 11:43:03;;;;;;;5.30;1.00;;;;;;;23.54;53.84;100896.27;55070;1272;1015624;-62
2023/10/02 11:45:36;;;;;;;9.00;1.00;;;;;;;23.59;53.59;100895.80;55129;1271;1015489;-61
2023/10/02 11:48:09;;;;;;;8.90;1.00;;;;;;;23.64;53.60;100891.17;55071;1272;1015359;-62
2023/10/02 11:50:42;;;;;;;8.00;1.30;;;;;;;23.68;53.49;100894.89;55085;1271;1015451;-61
2023/10/02 11:53:15;;;;;;;17.30;1.60;;;;;;;23.66;53.37;100892.25;55099;1266;1016055;-62
2023/10/02 11:55:48;;;;;;;8.20;1.00;;;;;;;23.69;53.29;100895.33;55082;1269;1015804;-62
2023/10/02 11:58:19;;;;;;;6.90;1.20;;;;;;;23.74;52.84;100892.68;55120;1271;1015824;-61
2023/10/02 12:00:51;;;;;;;6.10;1.30;;;;;;;23.76;52.84;100885.58;55085;1271;1015444;-61
2023/10/02 12:03:22;;;;;;;9.20;1.20;;;;;;;23.78;52.53;100883.98;55076;1272;1015788;-62
2023/10/02 12:05:54;;;;;;;5.80;1.00;;;;;;;23.82;52.45;100886.56;55087;1271;1015716;-61
2023/10/02 12:08:25;;;;;;;7.60;1.30;;;;;;;23.84;51.99;100882.10;55113;1271;1015395;-61
2023/10/02 12:10:57;;;;;;;6.70;1.30;;;;;;;23.83;51.77;100881.11;55165;1264;1016165;-62
2023/10/02 12:13:29;;;;;;;7.50;1.40;;;;;;;23.79;51.23;100882.02;55091;1272;1015968;-61